Liberty — ZGBV9 — position and weather

sailwx.info

Track history (hours):
 
Tides and Currents Weather Stations Pressure Air Temp Water Temp Dewpoint Dewpoint Depression Visibility Wind Speed Wind Dir Waves Ship Positions

Liberty

Last reported at 2017-Sep-29 15:57 UTC. Time now 2017-Nov-18 06:53 UTC.
Position N 43°53' E 008°02'.
Warning: this ship's position is 49 days out of date.

Length 50 m; draft 2.9 m.

Type: Pleasure craft. MMSI: 319453000.

Date/timePositionNaut miles runAvg speedWind from/ knotsBaromVisibWave heightAir tempDewpointWater temp
2017-Sep-29 15:57N 43°53' E 008°02'1212.8
2017-Sep-29 14:59N 43°46' E 008°16'714.3
2017-Sep-29 14:30N 43°42' E 008°24'612.6
2017-Sep-29 14:00N 43°38' E 008°31'612.5
2017-Sep-29 13:30N 43°34' E 008°38'612.5
2017-Sep-29 13:00N 43°31' E 008°45'612.6
2017-Sep-29 12:30N 43°27' E 008°52'612.3
2017-Sep-29 12:00N 43°23' E 008°59'612.5
2017-Sep-29 11:30N 43°20' E 009°06'612.6
2017-Sep-29 11:00N 43°16' E 009°13'612.4
2017-Sep-29 10:30N 43°12' E 009°20'3013.3
2017-Sep-29 08:14N 42°50' E 009°48'2112.2
2017-Sep-29 06:31N 42°37' E 010°10'112.1
2017-Sep-29 06:24N 42°36' E 010°11'32712.0
2017-Sep-28 03:09N 38°42' E 015°12'412.2
2017-Sep-28 02:49N 38°39' E 015°15'412.1
2017-Sep-28 02:30N 38°36' E 015°18'611.8
2017-Sep-28 02:00N 38°32' E 015°24'611.5
2017-Sep-28 01:29N 38°28' E 015°29'611.3
2017-Sep-28 01:00N 38°24' E 015°34'611.4
2017-Sep-28 00:30N 38°20' E 015°39'5 9.7
2017-Sep-28 00:00N 38°16' E 015°41'510.2
2017-Sep-27 23:30N 38°12' E 015°37'612.0
2017-Sep-27 23:00N 38°06' E 015°36'612.5
2017-Sep-27 22:30N 37°60' E 015°36'613.2
2017-Sep-27 22:00N 37°55' E 015°42'612.2
2017-Sep-27 21:30N 37°52' E 015°49'712.6
2017-Sep-27 20:56N 37°50' E 015°58'  
Track history (hours):
 
Tides and Currents Weather Stations Pressure Air Temp Water Temp Dewpoint Dewpoint Depression Visibility Wind Speed Wind Dir Waves Ship Positions

Liberty

Last reported at 2017-Sep-29 15:57 UTC. Time now 2017-Nov-18 06:53 UTC.
Position N 43°53' E 008°02'.
Warning: this ship's position is 49 days out of date.

Length 50 m; draft 2.9 m.

Type: Pleasure craft. MMSI: 319453000.

Date/timePositionNaut miles runAvg speedWind from/ knotsBaromVisibWave heightAir tempDewpointWater temp
2017-Sep-29 15:57N 43°53' E 008°02'1212.8
2017-Sep-29 14:59N 43°46' E 008°16'714.3
2017-Sep-29 14:30N 43°42' E 008°24'612.6
2017-Sep-29 14:00N 43°38' E 008°31'612.5
2017-Sep-29 13:30N 43°34' E 008°38'612.5
2017-Sep-29 13:00N 43°31' E 008°45'612.6
2017-Sep-29 12:30N 43°27' E 008°52'612.3
2017-Sep-29 12:00N 43°23' E 008°59'612.5
2017-Sep-29 11:30N 43°20' E 009°06'612.6
2017-Sep-29 11:00N 43°16' E 009°13'612.4
2017-Sep-29 10:30N 43°12' E 009°20'3013.3
2017-Sep-29 08:14N 42°50' E 009°48'2112.2
2017-Sep-29 06:31N 42°37' E 010°10'112.1
2017-Sep-29 06:24N 42°36' E 010°11'32712.0
2017-Sep-28 03:09N 38°42' E 015°12'412.2
2017-Sep-28 02:49N 38°39' E 015°15'412.1
2017-Sep-28 02:30N 38°36' E 015°18'611.8
2017-Sep-28 02:00N 38°32' E 015°24'611.5
2017-Sep-28 01:29N 38°28' E 015°29'611.3
2017-Sep-28 01:00N 38°24' E 015°34'611.4
2017-Sep-28 00:30N 38°20' E 015°39'5 9.7
2017-Sep-28 00:00N 38°16' E 015°41'510.2
2017-Sep-27 23:30N 38°12' E 015°37'612.0
2017-Sep-27 23:00N 38°06' E 015°36'612.5
2017-Sep-27 22:30N 37°60' E 015°36'613.2
2017-Sep-27 22:00N 37°55' E 015°42'612.2
2017-Sep-27 21:30N 37°52' E 015°49'712.6
2017-Sep-27 20:56N 37°50' E 015°58'  

Dump ship's entire track history